createdAt,value
2023-02-11T00:02:01.998Z,25.00
2023-02-11T00:05:05.719Z,24.85
2023-02-11T00:08:08.418Z,24.08
2023-02-11T00:11:16.764Z,24.03
2023-02-11T00:14:19.220Z,25.23
2023-02-11T00:17:22.267Z,21.98
2023-02-11T00:20:25.603Z,24.23
2023-02-11T00:23:28.918Z,22.48
2023-02-11T00:26:35.178Z,22.65
2023-02-11T00:29:39.685Z,24.75
2023-02-11T00:32:42.692Z,24.37
2023-02-11T00:35:45.760Z,23.70
2023-02-11T00:38:49.959Z,22.98
2023-02-11T00:41:53.050Z,22.13
2023-02-11T00:44:56.974Z,24.37
2023-02-11T00:48:00.031Z,23.92
2023-02-11T00:51:04.984Z,22.40
2023-02-11T00:54:08.774Z,22.27
2023-02-11T00:57:11.708Z,24.08
2023-02-11T01:00:15.546Z,22.87
2023-02-11T01:03:18.568Z,21.08
2023-02-11T01:06:21.596Z,22.98
2023-02-11T01:09:24.500Z,21.33
2023-02-11T01:12:27.293Z,20.53
2023-02-11T01:15:33.729Z,21.33
2023-02-11T01:18:38.108Z,21.73
2023-02-11T01:21:42.253Z,21.17
2023-02-11T01:24:44.991Z,21.05
2023-02-11T01:27:47.485Z,22.13
2023-02-11T01:30:50.886Z,23.48
2023-02-11T01:33:54.262Z,18.83
2023-02-11T01:37:00.365Z,21.35
2023-02-11T01:40:07.481Z,23.17
2023-02-11T01:43:11.589Z,21.53
2023-02-11T01:46:37.450Z,20.50
2023-02-11T01:49:48.993Z,19.95
2023-02-11T01:52:51.474Z,20.33
2023-02-11T01:56:14.815Z,22.10
2023-02-11T01:59:23.884Z,22.42
2023-02-11T02:02:34.721Z,22.27
2023-02-11T02:05:58.576Z,21.10
2023-02-11T02:09:16.726Z,21.30
2023-02-11T02:12:21.195Z,22.35
2023-02-11T02:15:34.320Z,20.67
2023-02-11T02:18:53.993Z,23.02
2023-02-11T02:22:25.127Z,20.88
2023-02-11T02:25:58.540Z,22.03
2023-02-11T02:29:31.485Z,21.37
2023-02-11T02:33:22.412Z,20.08
2023-02-11T02:36:38.019Z,20.70
2023-02-11T02:39:41.007Z,22.00
2023-02-11T02:42:44.631Z,21.00
2023-02-11T02:45:48.672Z,21.45
2023-02-11T02:48:54.418Z,21.07
2023-02-11T02:52:14.565Z,21.73
2023-02-11T02:55:26.760Z,21.85
2023-02-11T02:58:36.348Z,21.10
2023-02-11T03:01:45.849Z,21.65
2023-02-11T03:04:55.295Z,23.10
2023-02-11T03:08:16.519Z,22.75
2023-02-11T03:11:22.270Z,22.27
2023-02-11T03:14:28.111Z,20.42
2023-02-11T03:17:35.097Z,18.83
2023-02-11T03:20:42.138Z,19.87
2023-02-11T03:23:52.917Z,22.25
2023-02-11T03:26:59.547Z,21.42
2023-02-11T03:30:13.491Z,20.53
2023-02-11T03:33:48.804Z,21.92
2023-02-11T03:36:57.255Z,19.77
2023-02-11T03:40:05.810Z,21.92
2023-02-11T03:43:19.295Z,20.70
2023-02-11T03:46:31.563Z,21.58
2023-02-11T03:49:38.726Z,23.58
2023-02-11T03:52:42.074Z,22.33
2023-02-11T03:55:47.830Z,21.00
2023-02-11T03:58:53.038Z,20.98
2023-02-11T04:01:56.618Z,25.43
2023-02-11T04:05:00.000Z,24.48
2023-02-11T04:08:03.880Z,24.20
2023-02-11T04:11:08.335Z,23.95
2023-02-11T04:14:11.298Z,22.58
2023-02-11T04:17:17.551Z,23.35
2023-02-11T04:20:20.577Z,22.67
2023-02-11T04:23:23.709Z,22.30
2023-02-11T04:26:26.435Z,22.95
2023-02-11T04:29:29.967Z,22.35
2023-02-11T04:32:33.146Z,23.00
2023-02-11T04:35:36.401Z,22.00
2023-02-11T04:38:40.134Z,20.10
2023-02-11T04:41:43.094Z,22.52
2023-02-11T04:44:45.900Z,21.80
2023-02-11T04:47:48.708Z,21.33
2023-02-11T04:50:51.232Z,21.55
2023-02-11T04:53:55.000Z,20.63
2023-02-11T04:56:57.944Z,21.10
2023-02-11T05:00:03.184Z,22.10
2023-02-11T05:03:06.005Z,21.87
2023-02-11T05:06:11.240Z,24.00
2023-02-11T05:09:14.721Z,22.58
2023-02-11T05:12:17.751Z,25.08
2023-02-11T05:15:20.779Z,26.10
2023-02-11T05:18:24.115Z,23.95
2023-02-11T05:21:30.078Z,25.25
2023-02-11T05:24:33.307Z,22.13
2023-02-11T05:27:36.419Z,23.17
2023-02-11T05:30:39.434Z,23.62
2023-02-11T05:33:47.247Z,24.40
2023-02-11T05:36:50.210Z,28.70
2023-02-11T05:39:53.690Z,27.92
2023-02-11T05:42:57.359Z,26.80
2023-02-11T05:46:00.954Z,22.75
2023-02-11T05:49:08.088Z,25.45
2023-02-11T05:52:11.385Z,25.90
2023-02-11T05:55:14.266Z,24.63
2023-02-11T05:58:16.918Z,25.52
2023-02-11T06:01:27.831Z,27.62
2023-02-11T06:04:33.602Z,25.50
2023-02-11T06:07:38.230Z,26.27
2023-02-11T06:10:43.961Z,25.00
2023-02-11T06:13:47.974Z,25.45
2023-02-11T06:16:51.976Z,24.77
2023-02-11T06:19:54.708Z,25.25
2023-02-11T06:22:57.757Z,26.62
2023-02-11T06:26:07.880Z,27.83
2023-02-11T06:29:12.949Z,26.33
2023-02-11T06:32:39.510Z,26.52
2023-02-11T06:35:47.878Z,23.73
2023-02-11T06:38:52.546Z,25.33
2023-02-11T06:41:55.874Z,25.42
2023-02-11T06:45:09.527Z,25.92
2023-02-11T06:48:17.019Z,26.52
2023-02-11T06:51:21.643Z,29.45
2023-02-11T06:54:24.910Z,32.20
2023-02-11T06:57:28.824Z,29.83
2023-02-11T07:00:35.407Z,31.40
2023-02-11T07:03:43.201Z,33.90
2023-02-11T07:06:46.198Z,33.83
2023-02-11T07:09:55.529Z,31.70
2023-02-11T07:13:05.023Z,33.20
2023-02-11T07:16:17.212Z,31.75
2023-02-11T07:19:21.239Z,32.95
2023-02-11T07:22:26.061Z,30.93
2023-02-11T07:25:30.092Z,30.17
2023-02-11T07:28:41.810Z,29.80
2023-02-11T07:31:47.841Z,28.55
2023-02-11T07:34:52.998Z,27.90
2023-02-11T07:37:58.108Z,28.42
2023-02-11T07:41:08.380Z,30.05
2023-02-11T07:44:18.859Z,28.12
2023-02-11T07:47:23.011Z,29.83
2023-02-11T07:50:26.301Z,28.73
2023-02-11T07:53:33.049Z,31.17
2023-02-11T07:56:38.230Z,28.67
2023-02-11T07:59:47.869Z,30.33
2023-02-11T08:02:52.047Z,25.95
2023-02-11T08:05:55.314Z,26.37
2023-02-11T08:09:09.787Z,25.08
2023-02-11T08:12:13.977Z,24.70
2023-02-11T08:15:26.769Z,22.02
2023-02-11T08:18:31.818Z,21.00
2023-02-11T08:21:44.367Z,23.15
2023-02-11T08:24:58.401Z,23.13
2023-02-11T08:28:04.391Z,25.25
2023-02-11T08:31:24.930Z,25.08
2023-02-11T08:34:28.840Z,24.73
2023-02-11T08:37:33.193Z,23.77
2023-02-11T08:40:36.537Z,22.92
2023-02-11T08:43:43.025Z,21.65
2023-02-11T08:46:49.476Z,21.00
2023-02-11T08:49:54.621Z,22.43
2023-02-11T08:53:08.253Z,21.70
2023-02-11T08:56:23.879Z,21.52
2023-02-11T08:59:29.089Z,26.15
2023-02-11T09:02:34.142Z,31.33
2023-02-11T09:05:47.038Z,24.50
2023-02-11T09:08:54.084Z,23.00
2023-02-11T09:12:02.820Z,23.90
2023-02-11T09:15:09.959Z,22.80
2023-02-11T09:18:17.739Z,24.92
2023-02-11T09:21:30.875Z,24.63
2023-02-11T09:24:41.765Z,23.60
2023-02-11T09:27:46.829Z,21.58
2023-02-11T09:30:54.551Z,21.08
2023-02-11T09:34:04.761Z,24.25
2023-02-11T09:37:11.067Z,23.33
2023-02-11T09:40:15.811Z,26.85
2023-02-11T09:43:42.870Z,23.50
2023-02-11T09:47:03.817Z,23.10
2023-02-11T09:50:26.760Z,23.00
2023-02-11T09:53:43.006Z,22.40
2023-02-11T09:56:46.469Z,22.63
2023-02-11T09:59:49.977Z,22.23
2023-02-11T10:03:20.296Z,24.00
2023-02-11T10:06:42.841Z,24.00
2023-02-11T10:09:56.802Z,23.03
2023-02-11T10:13:04.837Z,23.97
2023-02-11T10:16:29.818Z,25.30
2023-02-11T10:20:19.021Z,37.17
2023-02-11T10:23:29.958Z,34.28
2023-02-11T10:26:44.957Z,22.43
2023-02-11T10:30:05.886Z,21.87
2023-02-11T10:33:37.029Z,21.92
2023-02-11T10:36:51.753Z,21.85
2023-02-11T10:39:58.994Z,21.15
2023-02-11T10:43:06.260Z,19.23
2023-02-11T10:46:24.482Z,19.20
2023-02-11T10:49:42.014Z,18.15
2023-02-11T10:53:13.810Z,17.98
2023-02-11T10:56:33.760Z,17.87
2023-02-11T10:59:40.378Z,17.40
2023-02-11T11:02:44.775Z,17.87
2023-02-11T11:06:00.773Z,17.58
2023-02-11T11:09:04.951Z,17.02
2023-02-11T11:12:48.907Z,17.27
2023-02-11T11:16:15.791Z,15.90
2023-02-11T11:19:26.875Z,17.37
2023-02-11T11:22:30.454Z,17.98
2023-02-11T11:25:37.779Z,17.55
2023-02-11T11:29:06.979Z,16.12
2023-02-11T11:32:32.928Z,16.50
2023-02-11T11:35:36.318Z,15.33
2023-02-11T11:38:58.814Z,16.83
2023-02-11T11:42:08.036Z,15.95
2023-02-11T11:45:25.771Z,15.77
2023-02-11T11:48:50.900Z,16.27
2023-02-11T11:52:27.841Z,16.07
2023-02-11T11:55:42.576Z,17.08
2023-02-11T11:58:54.808Z,17.42
2023-02-11T12:02:35.846Z,17.67
2023-02-11T12:06:03.242Z,16.40
2023-02-11T12:09:24.774Z,16.47
2023-02-11T12:12:32.772Z,15.80
2023-02-11T12:15:45.054Z,15.32
2023-02-11T12:19:33.425Z,16.42
2023-02-11T12:23:13.876Z,15.43
2023-02-11T12:26:23.388Z,16.17
2023-02-11T12:30:01.953Z,15.95
2023-02-11T12:33:34.043Z,15.40
2023-02-11T12:36:55.913Z,16.15
2023-02-11T12:40:35.025Z,15.67
2023-02-11T12:43:53.436Z,18.37
2023-02-11T12:47:40.165Z,15.55
2023-02-11T12:51:16.750Z,19.95
2023-02-11T12:54:47.888Z,15.98
2023-02-11T12:58:00.862Z,16.33
2023-02-11T13:01:23.892Z,17.60
2023-02-11T13:04:37.782Z,15.82
2023-02-11T13:07:50.840Z,15.45
2023-02-11T13:11:11.030Z,16.60
2023-02-11T13:14:38.917Z,15.60
2023-02-11T13:18:01.141Z,14.00
2023-02-11T13:21:17.966Z,16.77
2023-02-11T13:24:37.152Z,16.05
2023-02-11T13:27:44.775Z,17.30
2023-02-11T13:30:52.555Z,18.83
2023-02-11T13:33:56.527Z,14.07
2023-02-11T13:37:07.830Z,14.48
2023-02-11T13:40:25.300Z,14.25
2023-02-11T13:43:30.348Z,14.65
2023-02-11T13:46:56.756Z,14.03
2023-02-11T13:50:05.670Z,13.77
2023-02-11T13:53:18.685Z,14.43
2023-02-11T13:56:30.276Z,13.52
2023-02-11T13:59:42.817Z,13.70
2023-02-11T14:03:29.891Z,13.50
2023-02-11T14:07:07.473Z,13.60
2023-02-11T14:10:49.024Z,13.77
2023-02-11T14:14:22.772Z,14.07
2023-02-11T14:17:33.243Z,13.98
2023-02-11T14:20:46.870Z,13.90
2023-02-11T14:24:20.858Z,12.93
2023-02-11T14:28:08.923Z,12.68
2023-02-11T14:31:59.815Z,12.60
2023-02-11T14:35:29.938Z,12.73
2023-02-11T14:38:55.872Z,13.37
2023-02-11T14:42:08.217Z,14.63
2023-02-11T14:45:21.553Z,13.45
2023-02-11T14:48:35.139Z,12.60
2023-02-11T14:51:41.449Z,12.77
2023-02-11T14:54:52.892Z,13.73
2023-02-11T14:58:21.415Z,13.27
2023-02-11T15:01:37.874Z,13.15
2023-02-11T15:04:51.808Z,12.07
2023-02-11T15:08:10.773Z,12.55
2023-02-11T15:11:25.561Z,13.20
2023-02-11T15:14:39.728Z,12.53
2023-02-11T15:17:46.846Z,13.32
2023-02-11T15:20:55.778Z,12.98
2023-02-11T15:24:03.213Z,14.13
2023-02-11T15:27:19.729Z,13.57
2023-02-11T15:30:36.303Z,13.63
2023-02-11T15:33:46.967Z,14.23
2023-02-11T15:36:50.396Z,14.00
2023-02-11T15:40:02.899Z,13.55
2023-02-11T15:43:11.169Z,14.10
2023-02-11T15:46:23.973Z,14.87
2023-02-11T15:49:33.541Z,15.10
2023-02-11T15:52:44.676Z,13.93
2023-02-11T15:56:17.165Z,15.07
2023-02-11T15:59:40.225Z,13.87
2023-02-11T16:02:47.272Z,15.30
2023-02-11T16:06:00.830Z,14.52
2023-02-11T16:09:13.852Z,14.20
2023-02-11T16:12:29.807Z,14.68
2023-02-11T16:15:38.804Z,15.57
2023-02-11T16:19:04.273Z,19.80
2023-02-11T16:22:13.870Z,26.02
2023-02-11T16:25:23.859Z,22.40
2023-02-11T16:28:28.174Z,19.73
2023-02-11T16:31:51.719Z,19.47
2023-02-11T16:35:02.851Z,20.52
2023-02-11T16:38:06.657Z,26.12
2023-02-11T16:41:19.566Z,30.90
2023-02-11T16:44:30.519Z,22.02
2023-02-11T16:47:37.815Z,29.27
2023-02-11T16:50:51.432Z,29.52
2023-02-11T16:54:02.691Z,25.05
2023-02-11T16:57:18.809Z,19.90
2023-02-11T17:00:30.186Z,24.75
2023-02-11T17:03:40.124Z,24.23
2023-02-11T17:06:55.967Z,28.27
2023-02-11T17:10:03.095Z,28.80
2023-02-11T17:13:08.713Z,30.30
2023-02-11T17:16:19.075Z,27.13
2023-02-11T17:19:27.757Z,25.57
2023-02-11T17:26:16.978Z,22.23
2023-02-11T17:29:25.134Z,23.12
2023-02-11T17:32:29.940Z,24.08
2023-02-11T17:35:47.707Z,23.70
2023-02-11T17:39:02.166Z,27.77
2023-02-11T17:42:23.843Z,38.30
2023-02-11T17:45:35.005Z,33.20
2023-02-11T17:48:53.957Z,25.23
2023-02-11T17:51:58.485Z,23.43
2023-02-11T17:55:16.684Z,24.35
2023-02-11T17:58:28.777Z,22.37
2023-02-11T18:01:37.169Z,24.12
2023-02-11T18:04:46.150Z,21.52
2023-02-11T18:08:02.839Z,21.43
2023-02-11T18:11:13.841Z,25.17
2023-02-11T18:14:23.140Z,23.92
2023-02-11T18:17:41.101Z,23.92
2023-02-11T18:20:59.874Z,23.98
2023-02-11T18:24:18.827Z,29.10
2023-02-11T18:27:40.752Z,30.70
2023-02-11T18:30:59.784Z,34.05
2023-02-11T18:34:11.839Z,33.97
2023-02-11T18:37:33.784Z,28.98
2023-02-11T18:40:43.727Z,21.23
2023-02-11T18:43:57.077Z,21.27
2023-02-11T18:47:07.652Z,18.95
2023-02-11T18:50:25.746Z,19.52
2023-02-11T18:53:33.070Z,21.00
2023-02-11T18:56:52.690Z,23.00
2023-02-11T19:00:04.873Z,22.48
2023-02-11T19:03:16.941Z,24.02
2023-02-11T19:06:30.767Z,22.70
2023-02-11T19:09:36.978Z,21.70
2023-02-11T19:12:47.775Z,22.00
2023-02-11T19:16:14.943Z,20.60
2023-02-11T19:19:31.658Z,23.87
2023-02-11T19:22:47.827Z,21.48
2023-02-11T19:25:51.839Z,19.20
2023-02-11T19:29:05.791Z,18.70
2023-02-11T19:32:22.650Z,19.23
2023-02-11T19:35:35.788Z,17.98
2023-02-11T19:38:45.979Z,16.65
2023-02-11T19:41:54.817Z,15.38
2023-02-11T19:45:13.685Z,14.80
2023-02-11T19:48:20.027Z,14.32
2023-02-11T19:51:24.340Z,14.15
2023-02-11T19:54:38.968Z,14.00
2023-02-11T19:57:48.679Z,14.18
2023-02-11T20:00:54.055Z,13.17
2023-02-11T20:03:59.760Z,13.55
2023-02-11T20:07:04.511Z,14.32
2023-02-11T20:10:08.868Z,13.38
2023-02-11T20:13:12.163Z,16.05
2023-02-11T20:16:47.391Z,15.10
2023-02-11T20:19:53.856Z,14.15
2023-02-11T20:22:58.714Z,14.75
2023-02-11T20:26:09.975Z,14.15
2023-02-11T20:29:15.358Z,13.95
2023-02-11T20:32:21.858Z,13.00
2023-02-11T20:35:25.571Z,13.30
2023-02-11T20:38:29.754Z,13.80
2023-02-11T20:41:44.719Z,14.32
2023-02-11T20:44:54.091Z,14.77
2023-02-11T20:48:07.689Z,13.27
2023-02-11T20:51:14.945Z,12.98
2023-02-11T20:54:26.868Z,13.38
2023-02-11T20:57:33.768Z,13.00
2023-02-11T21:00:39.893Z,14.82
2023-02-11T21:03:52.496Z,13.97
2023-02-11T21:07:08.785Z,14.52
2023-02-11T21:10:15.941Z,13.65
2023-02-11T21:13:27.933Z,13.05
2023-02-11T21:16:35.873Z,13.43
2023-02-11T21:19:47.690Z,13.70
2023-02-11T21:23:01.894Z,13.15
2023-02-11T21:26:11.828Z,12.88
2023-02-11T21:29:19.750Z,12.05
2023-02-11T21:32:28.222Z,12.55
2023-02-11T21:35:42.526Z,13.50
2023-02-11T21:38:53.001Z,13.68
2023-02-11T21:42:09.788Z,13.52
2023-02-11T21:45:17.352Z,13.30
2023-02-11T21:48:24.007Z,13.23
2023-02-11T21:51:29.997Z,13.63
2023-02-11T21:54:34.611Z,15.35
2023-02-11T21:57:39.573Z,15.68
2023-02-11T22:00:42.898Z,16.00
2023-02-11T22:03:54.745Z,15.50
2023-02-11T22:07:01.510Z,14.73
2023-02-11T22:10:13.075Z,13.98
2023-02-11T22:13:20.835Z,14.00
2023-02-11T22:16:25.373Z,13.45
2023-02-11T22:19:33.699Z,12.70
2023-02-11T22:22:38.782Z,12.60
2023-02-11T22:25:41.908Z,13.13
2023-02-11T22:28:45.936Z,19.20
2023-02-11T22:31:49.403Z,18.80
2023-02-11T22:34:53.515Z,15.60
2023-02-11T22:37:59.716Z,14.47
2023-02-11T22:41:13.764Z,12.93
2023-02-11T22:44:26.952Z,11.60
2023-02-11T22:47:32.162Z,11.70
2023-02-11T22:50:36.312Z,11.00
2023-02-11T22:53:40.651Z,10.90
2023-02-11T22:56:51.331Z,10.05
2023-02-11T22:59:55.555Z,10.98
2023-02-11T23:02:59.202Z,10.95
2023-02-11T23:06:03.790Z,10.82
2023-02-11T23:09:09.592Z,11.63
2023-02-11T23:12:15.563Z,9.73
2023-02-11T23:15:18.726Z,10.07
2023-02-11T23:18:22.099Z,10.10
2023-02-11T23:21:27.831Z,10.88
2023-02-11T23:24:31.972Z,10.80
2023-02-11T23:27:34.789Z,10.85
2023-02-11T23:30:38.495Z,10.43
2023-02-11T23:33:42.180Z,10.73
2023-02-11T23:36:45.233Z,10.82
2023-02-11T23:39:50.065Z,9.43
2023-02-11T23:42:55.827Z,10.73
2023-02-11T23:46:00.712Z,10.57
2023-02-11T23:49:10.151Z,9.77
2023-02-11T23:52:13.136Z,10.77
2023-02-11T23:55:16.404Z,9.80
2023-02-11T23:58:19.216Z,9.82
